Harts, West Virginia
Current Conditions -  °F | °C
As of 7:51 PM on Monday 22 Dec 2014 (Local Time) from KHTS Reporting Station
Overcast Overcast  
Wind Chill: 51°   Ceiling: 9000
Heat Index: 51°   Visibility: 10mi
Dew Point: 39°   Wind: 8mph
Humidity: 63%   Direction: 120°ESE
Pressure: 29.84"   Gusts: NA
Location:  38.03°N, 82.13°W
Report Text: KHTS 230051Z 12007KT 10SM OVC090 11/04 A2984 RMK AO2 SLP106 T01060039
Loading
Personal Weather Stations






























Interactive Weather Map New forecast layout! Learn more

10-Day Weather Forecast

Advertisements
Track Severe Weather on mobile